createdAt,value
2022-10-19T00:01:22.184Z,98575.38
2022-10-19T00:03:53.509Z,98574.56
2022-10-19T00:06:28.824Z,98579.31
2022-10-19T00:09:09.110Z,98583.41
2022-10-19T00:11:41.094Z,98573.84
2022-10-19T00:14:14.102Z,98588.91
2022-10-19T00:16:43.521Z,98589.09
2022-10-19T00:19:23.358Z,98586.97
2022-10-19T00:21:51.649Z,98581.38
2022-10-19T00:24:19.957Z,98581.00
2022-10-19T00:26:47.787Z,98582.28
2022-10-19T00:29:16.078Z,98575.69
2022-10-19T00:31:44.003Z,98579.50
2022-10-19T00:34:11.997Z,98584.69
2022-10-19T00:36:41.433Z,98587.75
2022-10-19T00:39:14.985Z,98577.19
2022-10-19T00:41:46.776Z,98571.22
2022-10-19T00:44:15.930Z,98576.25
2022-10-19T00:46:50.620Z,98566.66
2022-10-19T00:49:24.905Z,98567.69
2022-10-19T00:52:01.899Z,98566.00
2022-10-19T00:54:32.504Z,98571.41
2022-10-19T00:57:00.784Z,98579.88
2022-10-19T00:59:31.855Z,98580.06
2022-10-19T01:02:03.586Z,98586.69
2022-10-19T01:04:38.739Z,98587.50
2022-10-19T01:07:08.270Z,98580.91
2022-10-19T01:09:36.076Z,98579.66
2022-10-19T01:12:43.797Z,98581.81
2022-10-19T01:15:46.910Z,98577.53
2022-10-19T01:18:50.642Z,98580.06
2022-10-19T01:21:34.431Z,98584.88
2022-10-19T01:24:30.275Z,98565.16
2022-10-19T01:27:22.358Z,98571.84
2022-10-19T01:30:00.809Z,98565.41
2022-10-19T01:32:38.201Z,98568.97
2022-10-19T01:35:22.832Z,98561.31
2022-10-19T01:38:19.168Z,98551.56
2022-10-19T01:40:59.284Z,98553.66
2022-10-19T01:43:44.591Z,98555.81
2022-10-19T01:46:49.720Z,98546.88
2022-10-19T01:49:53.567Z,98542.31
2022-10-19T01:52:24.046Z,98544.16
2022-10-19T01:54:58.033Z,98540.81
2022-10-19T01:57:34.377Z,98536.06
2022-10-19T02:00:07.619Z,98526.97
2022-10-19T02:02:47.421Z,98543.78
2022-10-19T02:05:17.369Z,98535.25
2022-10-19T02:07:50.764Z,98539.63
2022-10-19T02:10:20.312Z,98525.09
2022-10-19T02:12:49.327Z,98525.09
2022-10-19T02:15:22.497Z,98532.38
2022-10-19T02:17:57.277Z,98526.59
2022-10-19T02:20:27.219Z,98524.09
2022-10-19T02:22:55.252Z,98518.09
2022-10-19T02:25:24.875Z,98522.66
2022-10-19T02:27:53.967Z,98516.22
2022-10-19T02:30:22.454Z,98516.91
2022-10-19T02:32:51.091Z,98510.50
2022-10-19T02:35:19.005Z,98512.38
2022-10-19T02:37:47.004Z,98514.03
2022-10-19T02:40:15.113Z,98514.66
2022-10-19T02:42:51.131Z,98509.91
2022-10-19T02:45:21.002Z,98514.75
2022-10-19T02:47:58.397Z,98505.38
2022-10-19T02:50:27.413Z,98508.81
2022-10-19T02:52:55.198Z,98495.44
2022-10-19T02:55:23.028Z,98490.22
2022-10-19T02:57:50.905Z,98492.28
2022-10-19T03:00:18.799Z,98493.88
2022-10-19T03:02:48.283Z,98496.97
2022-10-19T03:05:16.140Z,98496.34
2022-10-19T03:07:43.936Z,98492.34
2022-10-19T03:10:11.753Z,98485.75
2022-10-19T03:12:39.604Z,98490.13
2022-10-19T03:15:08.440Z,98478.66
2022-10-19T03:17:36.401Z,98483.22
2022-10-19T03:20:05.309Z,98477.38
2022-10-19T03:22:33.081Z,98476.56
2022-10-19T03:25:00.894Z,98472.84
2022-10-19T03:27:28.677Z,98470.19
2022-10-19T03:29:56.475Z,98472.72
2022-10-19T03:32:24.272Z,98470.00
2022-10-19T03:34:52.121Z,98468.34
2022-10-19T03:37:19.991Z,98465.44
2022-10-19T03:39:47.837Z,98464.44
2022-10-19T03:42:15.659Z,98470.19
2022-10-19T03:44:43.469Z,98467.88
2022-10-19T03:47:11.227Z,98464.16
2022-10-19T03:49:40.334Z,98460.25
2022-10-19T03:52:10.132Z,98459.59
2022-10-19T03:54:38.161Z,98468.72
2022-10-19T03:57:06.003Z,98476.41
2022-10-19T03:59:33.865Z,98477.06
2022-10-19T04:02:01.708Z,98468.59
2022-10-19T04:04:29.544Z,98478.78
2022-10-19T04:06:57.342Z,98470.53
2022-10-19T04:09:25.145Z,98468.00
2022-10-19T04:11:53.023Z,98463.88
2022-10-19T04:14:32.164Z,98462.69
2022-10-19T04:17:02.656Z,98465.38
2022-10-19T04:19:31.489Z,98458.31
2022-10-19T04:21:59.823Z,98467.19
2022-10-19T04:24:28.247Z,98463.84
2022-10-19T04:26:56.857Z,98469.19
2022-10-19T04:29:29.674Z,98463.53
2022-10-19T04:31:59.842Z,98467.63
2022-10-19T04:34:27.761Z,98467.19
2022-10-19T04:36:59.228Z,98464.50
2022-10-19T04:39:27.681Z,98473.22
2022-10-19T04:41:55.536Z,98473.66
2022-10-19T04:46:56.276Z,98478.03
2022-10-19T04:49:24.144Z,98476.38
2022-10-19T04:51:51.910Z,98475.78
2022-10-19T04:54:19.709Z,98471.44
2022-10-19T04:56:47.893Z,98477.84
2022-10-19T04:59:15.748Z,98472.25
2022-10-19T05:01:46.325Z,98469.56
2022-10-19T05:04:15.354Z,98472.44
2022-10-19T05:06:43.201Z,98473.28
2022-10-19T05:09:11.157Z,98469.56
2022-10-19T05:11:39.053Z,98472.06
2022-10-19T05:14:06.961Z,98475.41
2022-10-19T05:16:34.870Z,98471.03
2022-10-19T05:19:03.157Z,98474.59
2022-10-19T05:21:31.079Z,98472.72
2022-10-19T05:23:59.146Z,98476.41
2022-10-19T05:26:29.138Z,98472.72
2022-10-19T05:29:04.802Z,98470.19
2022-10-19T05:31:34.741Z,98469.38
2022-10-19T05:34:04.105Z,98466.50
2022-10-19T05:36:35.077Z,98464.16
2022-10-19T05:39:13.830Z,98461.66
2022-10-19T05:41:46.516Z,98454.81
2022-10-19T05:44:21.229Z,98462.25
2022-10-19T05:46:51.420Z,98468.84
2022-10-19T05:49:22.155Z,98468.84
2022-10-19T05:51:50.676Z,98471.75
2022-10-19T05:54:21.766Z,98469.25
2022-10-19T05:56:51.731Z,98471.28
2022-10-19T05:59:21.797Z,98472.31
2022-10-19T06:01:49.733Z,98466.91
2022-10-19T06:06:50.429Z,98463.66
2022-10-19T06:09:18.300Z,98468.19
2022-10-19T06:11:46.155Z,98471.94
2022-10-19T06:14:16.382Z,98468.00
2022-10-19T06:16:46.060Z,98478.59
2022-10-19T06:19:14.337Z,98472.56
2022-10-19T06:21:45.828Z,98479.63
2022-10-19T06:24:14.114Z,98489.38
2022-10-19T06:26:41.962Z,98483.19
2022-10-19T06:29:10.182Z,98477.38
2022-10-19T06:31:38.473Z,98479.06
2022-10-19T06:34:07.078Z,98485.28
2022-10-19T06:36:35.675Z,98480.72
2022-10-19T06:39:04.350Z,98477.38
2022-10-19T06:41:32.648Z,98482.59
2022-10-19T06:44:17.452Z,98480.53
2022-10-19T06:46:45.215Z,98481.31
2022-10-19T06:49:15.447Z,98489.03
2022-10-19T06:51:43.297Z,98486.09
2022-10-19T06:54:11.106Z,98489.91
2022-10-19T06:56:38.972Z,98481.00
2022-10-19T06:59:06.892Z,98481.81
2022-10-19T07:01:34.674Z,98483.09
2022-10-19T07:04:02.934Z,98487.75
2022-10-19T07:06:30.772Z,98480.28
2022-10-19T07:08:58.570Z,98489.47
2022-10-19T07:11:26.364Z,98487.22
2022-10-19T07:13:54.408Z,98482.28
2022-10-19T07:16:22.686Z,98491.25
2022-10-19T07:18:53.210Z,98498.75
2022-10-19T07:21:23.233Z,98495.44
2022-10-19T07:23:51.905Z,98493.00
2022-10-19T07:26:27.004Z,98500.31
2022-10-19T07:28:57.514Z,98493.91
2022-10-19T07:31:28.180Z,98492.88
2022-10-19T07:33:59.288Z,98490.63
2022-10-19T07:36:29.127Z,98491.91
2022-10-19T07:38:58.265Z,98496.50
2022-10-19T07:41:26.957Z,98497.38
2022-10-19T07:43:55.273Z,98490.72
2022-10-19T07:46:27.232Z,98491.16
2022-10-19T07:48:55.889Z,98497.84
2022-10-19T07:51:23.997Z,98495.97
2022-10-19T07:53:52.088Z,98501.00
2022-10-19T07:56:26.027Z,98494.34
2022-10-19T07:58:57.255Z,98492.91
2022-10-19T08:01:30.012Z,98495.44
2022-10-19T08:06:47.902Z,98491.75
2022-10-19T08:09:40.028Z,98496.09
2022-10-19T08:12:05.406Z,98494.69
2022-10-19T08:14:33.994Z,98496.53
2022-10-19T08:17:02.030Z,98499.47
2022-10-19T08:19:29.866Z,98493.22
2022-10-19T08:21:57.674Z,98490.91
2022-10-19T08:24:25.501Z,98488.78
2022-10-19T08:26:53.384Z,98495.00
2022-10-19T08:29:21.949Z,98485.44
2022-10-19T08:31:50.194Z,98484.19
2022-10-19T08:34:18.205Z,98487.53
2022-10-19T08:36:47.330Z,98496.25
2022-10-19T08:39:16.382Z,98500.63
2022-10-19T08:42:19.396Z,98501.47
2022-10-19T08:45:14.627Z,98498.16
2022-10-19T08:48:05.775Z,98504.41
2022-10-19T08:50:46.681Z,98495.28
2022-10-19T08:53:49.499Z,98493.81
2022-10-19T08:56:51.985Z,98498.16
2022-10-19T08:59:48.626Z,98508.31
2022-10-19T09:02:58.284Z,98497.31
2022-10-19T09:05:46.940Z,98493.56
2022-10-19T09:08:17.789Z,98491.91
2022-10-19T09:10:50.908Z,98491.72
2022-10-19T09:14:03.790Z,98483.41
2022-10-19T09:16:30.567Z,98480.94
2022-10-19T09:18:58.466Z,98483.44
2022-10-19T09:21:57.047Z,98480.16
2022-10-19T09:24:46.432Z,98474.34
2022-10-19T09:27:23.065Z,98473.31
2022-10-19T09:30:02.520Z,98471.69
2022-10-19T09:32:37.627Z,98472.13
2022-10-19T09:35:28.150Z,98474.88
2022-10-19T09:37:56.681Z,98469.91
2022-10-19T09:40:30.138Z,98466.63
2022-10-19T09:42:59.060Z,98469.97
2022-10-19T09:45:57.324Z,98476.44
2022-10-19T09:48:25.013Z,98465.00
2022-10-19T09:51:01.660Z,98469.16
2022-10-19T09:53:30.866Z,98471.66
2022-10-19T09:56:09.081Z,98468.56
2022-10-19T09:58:46.742Z,98466.94
2022-10-19T10:01:43.130Z,98467.13
2022-10-19T10:04:17.830Z,98472.97
2022-10-19T10:06:49.023Z,98470.47
2022-10-19T10:09:29.915Z,98467.19
2022-10-19T10:12:00.413Z,98465.09
2022-10-19T10:14:33.896Z,98461.34
2022-10-19T10:17:11.976Z,98471.13
2022-10-19T10:20:24.100Z,98464.28
2022-10-19T10:23:07.163Z,98465.31
2022-10-19T10:25:56.737Z,98461.78
2022-10-19T10:28:31.443Z,98456.97
2022-10-19T10:31:16.937Z,98458.63
2022-10-19T10:34:12.140Z,98456.56
2022-10-19T10:36:55.100Z,98453.66
2022-10-19T10:39:27.329Z,98456.13
2022-10-19T10:42:07.261Z,98452.19
2022-10-19T10:47:40.272Z,98448.50
2022-10-19T10:50:46.517Z,98440.19
2022-10-19T10:53:46.507Z,98443.28
2022-10-19T10:56:36.080Z,98431.84
2022-10-19T10:59:27.095Z,98434.78
2022-10-19T11:02:10.750Z,98436.44
2022-10-19T11:04:52.289Z,98424.75
2022-10-19T11:07:30.048Z,98434.13
2022-10-19T11:10:13.741Z,98428.09
2022-10-19T11:13:21.663Z,98428.09
2022-10-19T11:16:05.400Z,98419.56
2022-10-19T11:19:12.588Z,98417.28
2022-10-19T11:22:17.134Z,98419.16
2022-10-19T11:25:46.946Z,98403.97
2022-10-19T11:29:10.329Z,98402.72
2022-10-19T11:32:17.701Z,98397.31
2022-10-19T11:35:15.766Z,98395.66
2022-10-19T11:38:22.700Z,98387.97
2022-10-19T11:41:49.718Z,98379.69
2022-10-19T11:44:55.016Z,98378.25
2022-10-19T11:48:21.047Z,98371.34
2022-10-19T11:51:37.448Z,98365.72
2022-10-19T11:54:44.631Z,98365.50
2022-10-19T11:58:05.732Z,98351.56
2022-10-19T12:00:56.604Z,98343.00
2022-10-19T12:04:06.583Z,98352.56
2022-10-19T12:07:22.670Z,98349.41
2022-10-19T12:10:38.295Z,98346.50
2022-10-19T12:13:19.446Z,98349.81
2022-10-19T12:15:55.124Z,98346.91
2022-10-19T12:18:46.686Z,98343.53
2022-10-19T12:21:32.754Z,98338.53
2022-10-19T12:24:13.124Z,98332.91
2022-10-19T12:26:45.126Z,98322.06
2022-10-19T12:29:29.741Z,98325.00
2022-10-19T12:32:00.897Z,98322.13
2022-10-19T12:35:17.285Z,98328.75
2022-10-19T12:38:43.980Z,98326.47
2022-10-19T12:41:54.069Z,98321.25
2022-10-19T12:45:11.011Z,98312.91
2022-10-19T12:48:06.725Z,98314.59
2022-10-19T12:50:54.765Z,98306.41
2022-10-19T12:53:50.584Z,98304.84
2022-10-19T12:56:29.290Z,98287.03
2022-10-19T12:59:02.527Z,98285.06
2022-10-19T13:01:44.836Z,98288.88
2022-10-19T13:04:36.348Z,98280.00
2022-10-19T13:07:11.412Z,98283.88
2022-10-19T13:09:49.736Z,98282.38
2022-10-19T13:12:25.841Z,98277.78
2022-10-19T13:15:05.386Z,98278.38
2022-10-19T13:17:43.003Z,98274.47
2022-10-19T13:20:17.671Z,98258.78
2022-10-19T13:23:03.656Z,98264.38
2022-10-19T13:25:39.571Z,98257.84
2022-10-19T13:28:07.441Z,98256.34
2022-10-19T13:30:46.806Z,98258.06
2022-10-19T13:33:29.235Z,98261.84
2022-10-19T13:35:59.767Z,98249.78
2022-10-19T13:38:59.123Z,98248.31
2022-10-19T13:41:45.073Z,98243.59
2022-10-19T13:44:18.875Z,98239.06
2022-10-19T13:47:01.823Z,98233.41
2022-10-19T13:49:49.187Z,98230.22
2022-10-19T13:52:44.565Z,98223.00
2022-10-19T13:55:43.028Z,98217.88
2022-10-19T13:58:33.779Z,98203.84
2022-10-19T14:01:04.527Z,98205.66
2022-10-19T14:04:30.510Z,98203.56
2022-10-19T14:07:19.050Z,98197.38
2022-10-19T14:10:14.324Z,98195.66
2022-10-19T14:12:44.370Z,98196.63
2022-10-19T14:15:28.019Z,98191.41
2022-10-19T14:17:57.141Z,98187.50
2022-10-19T14:20:30.763Z,98190.44
2022-10-19T14:23:20.856Z,98186.38
2022-10-19T14:25:55.809Z,98192.41
2022-10-19T14:28:24.686Z,98179.91
2022-10-19T14:31:05.058Z,98179.91
2022-10-19T14:33:40.700Z,98184.94
2022-10-19T14:36:17.765Z,98192.50
2022-10-19T14:38:47.224Z,98186.84
2022-10-19T14:41:29.010Z,98168.06
2022-10-19T14:43:58.805Z,98167.47
2022-10-19T14:46:34.712Z,98163.31
2022-10-19T15:05:36.055Z,98167.25
2022-10-19T15:08:11.591Z,98158.19
2022-10-19T15:10:48.204Z,98162.25
2022-10-19T15:13:41.584Z,98163.13
2022-10-19T15:16:39.002Z,98148.94
2022-10-19T15:19:37.736Z,98148.34
2022-10-19T15:22:14.718Z,98155.63
2022-10-19T15:25:29.481Z,98160.31
2022-10-19T15:27:57.799Z,98163.88
2022-10-19T15:30:32.657Z,98154.78
2022-10-19T15:33:10.319Z,98159.59
2022-10-19T15:35:41.522Z,98153.31
2022-10-19T15:38:23.183Z,98137.75
2022-10-19T15:41:02.928Z,98141.97
2022-10-19T15:43:30.803Z,98141.16
2022-10-19T15:46:20.784Z,98140.84
2022-10-19T15:48:55.749Z,98143.59
2022-10-19T15:51:23.544Z,98134.09
2022-10-19T15:53:57.280Z,98137.31
2022-10-19T15:56:28.412Z,98141.28
2022-10-19T15:59:00.441Z,98130.94
2022-10-19T16:01:32.225Z,98130.75
2022-10-19T16:04:02.023Z,98132.66
2022-10-19T16:06:35.287Z,98136.22
2022-10-19T16:09:11.723Z,98135.84
2022-10-19T16:11:46.000Z,98126.09
2022-10-19T16:16:47.238Z,98127.41
2022-10-19T16:19:18.427Z,98124.50
2022-10-19T16:21:50.434Z,98127.25
2022-10-19T16:24:23.662Z,98118.94
2022-10-19T16:26:56.084Z,98117.25
2022-10-19T16:29:28.861Z,98118.75
2022-10-19T16:31:57.290Z,98116.69
2022-10-19T16:34:25.692Z,98119.38
2022-10-19T16:37:06.757Z,98130.03
2022-10-19T16:39:35.420Z,98124.63
2022-10-19T16:42:03.747Z,98124.84
2022-10-19T16:44:31.714Z,98120.09
2022-10-19T16:46:59.920Z,98111.16
2022-10-19T16:49:27.987Z,98118.88
2022-10-19T16:51:57.496Z,98125.53
2022-10-19T16:54:32.847Z,98118.88
2022-10-19T16:57:00.647Z,98128.47
2022-10-19T16:59:28.601Z,98119.53
2022-10-19T17:01:56.513Z,98130.31
2022-10-19T17:04:25.783Z,98132.84
2022-10-19T17:06:53.630Z,98132.63
2022-10-19T17:12:10.077Z,98117.66
2022-10-19T17:14:41.412Z,98117.22
2022-10-19T17:17:11.102Z,98114.31
2022-10-19T17:19:39.287Z,98119.72
2022-10-19T17:22:07.190Z,98114.97
2022-10-19T17:24:37.331Z,98117.00
2022-10-19T17:27:05.215Z,98126.81
2022-10-19T17:29:33.095Z,98125.53
2022-10-19T17:32:00.938Z,98125.97
2022-10-19T17:34:28.945Z,98117.63
2022-10-19T17:36:57.492Z,98123.84
2022-10-19T17:39:29.224Z,98120.75
2022-10-19T17:42:02.111Z,98129.88
2022-10-19T17:44:31.756Z,98125.31
2022-10-19T17:47:01.077Z,98131.53
2022-10-19T17:49:30.075Z,98131.72
2022-10-19T17:51:58.408Z,98131.09
2022-10-19T17:54:26.709Z,98131.09
2022-10-19T17:56:54.903Z,98139.22
2022-10-19T17:59:34.653Z,98133.00
2022-10-19T18:02:10.986Z,98137.53
2022-10-19T18:04:39.037Z,98131.31
2022-10-19T18:07:06.857Z,98137.97
2022-10-19T18:09:34.715Z,98130.25
2022-10-19T18:12:05.028Z,98132.53
2022-10-19T18:14:35.120Z,98124.88
2022-10-19T18:17:02.947Z,98122.34
2022-10-19T18:19:30.795Z,98129.41
2022-10-19T18:21:58.618Z,98121.53
2022-10-19T18:24:26.607Z,98117.59
2022-10-19T18:26:54.571Z,98119.63
2022-10-19T18:29:25.602Z,98112.59
2022-10-19T18:31:54.030Z,98116.94
2022-10-19T18:34:25.678Z,98116.72
2022-10-19T18:36:54.758Z,98113.59
2022-10-19T18:39:23.441Z,98115.47
2022-10-19T18:41:54.668Z,98124.59
2022-10-19T18:44:27.292Z,98119.00
2022-10-19T18:46:57.650Z,98120.00
2022-10-19T18:49:26.145Z,98121.69
2022-10-19T18:51:55.726Z,98121.31
2022-10-19T18:54:26.568Z,98116.94
2022-10-19T18:56:55.400Z,98122.13
2022-10-19T18:59:23.630Z,98114.88
2022-10-19T19:01:51.810Z,98115.72
2022-10-19T19:04:19.832Z,98106.56
2022-10-19T19:06:48.152Z,98108.59
2022-10-19T19:09:17.560Z,98104.84
2022-10-19T19:11:45.686Z,98111.03
2022-10-19T19:14:17.599Z,98101.25
2022-10-19T19:16:46.084Z,98103.50
2022-10-19T19:19:17.175Z,98093.34
2022-10-19T19:21:46.059Z,98085.25
2022-10-19T19:24:19.206Z,98091.03
2022-10-19T19:26:54.818Z,98094.97
2022-10-19T19:29:24.629Z,98091.19
2022-10-19T19:31:53.587Z,98086.63
2022-10-19T19:34:22.524Z,98080.97
2022-10-19T19:36:50.440Z,98085.13
2022-10-19T19:39:21.083Z,98087.38
2022-10-19T19:41:50.212Z,98084.25
2022-10-19T19:44:19.039Z,98079.66
2022-10-19T19:46:46.933Z,98075.97
2022-10-19T19:49:16.663Z,98074.72
2022-10-19T19:51:44.606Z,98068.13
2022-10-19T19:54:12.657Z,98070.59
2022-10-19T19:56:42.501Z,98067.69
2022-10-19T19:59:12.633Z,98064.81
2022-10-19T20:01:41.172Z,98056.34
2022-10-19T20:04:10.062Z,98058.81
2022-10-19T20:06:40.578Z,98063.19
2022-10-19T20:09:09.188Z,98061.31
2022-10-19T20:11:42.018Z,98056.75
2022-10-19T20:14:12.621Z,98052.22
2022-10-19T20:16:40.690Z,98060.50
2022-10-19T20:19:13.076Z,98063.78
2022-10-19T20:21:41.553Z,98059.00
2022-10-19T20:24:10.180Z,98051.53
2022-10-19T20:26:38.453Z,98050.03
2022-10-19T20:29:06.747Z,98050.03
2022-10-19T20:31:39.609Z,98050.25
2022-10-19T20:34:10.878Z,98042.75
2022-10-19T20:36:38.765Z,98036.09
2022-10-19T20:39:06.789Z,98034.41
2022-10-19T20:41:34.975Z,98044.13
2022-10-19T20:44:02.817Z,98051.56
2022-10-19T20:46:32.005Z,98050.31
2022-10-19T20:49:02.905Z,98055.06
2022-10-19T20:51:35.111Z,98051.91
2022-10-19T20:54:06.115Z,98048.13
2022-10-19T20:56:36.851Z,98041.91
2022-10-19T20:59:15.878Z,98050.38
2022-10-19T21:01:45.684Z,98054.94
2022-10-19T21:04:15.483Z,98054.31
2022-10-19T21:06:50.144Z,98049.97
2022-10-19T21:09:23.297Z,98049.75
2022-10-19T21:11:52.433Z,98048.66
2022-10-19T21:14:28.731Z,98043.28
2022-10-19T21:16:58.402Z,98043.69
2022-10-19T21:19:28.785Z,98041.59
2022-10-19T21:22:03.663Z,98040.75
2022-10-19T21:24:35.497Z,98033.91
2022-10-19T21:27:09.316Z,98040.31
2022-10-19T21:29:37.788Z,98041.53
2022-10-19T21:32:06.671Z,98042.59
2022-10-19T21:34:34.616Z,98037.56
2022-10-19T21:37:02.420Z,98045.22
2022-10-19T21:39:30.329Z,98042.91
2022-10-19T21:41:58.178Z,98033.34
2022-10-19T21:44:26.024Z,98034.59
2022-10-19T21:46:53.866Z,98027.94
2022-10-19T21:49:21.712Z,98024.41
2022-10-19T21:51:56.167Z,98023.34
2022-10-19T21:54:25.871Z,98018.53
2022-10-19T21:56:55.914Z,98006.31
2022-10-19T21:59:24.796Z,98013.34
2022-10-19T22:01:54.701Z,98006.13
2022-10-19T22:04:23.278Z,98007.94
2022-10-19T22:06:51.199Z,98003.63
2022-10-19T22:09:21.922Z,98005.84
2022-10-19T22:11:49.801Z,98004.59
2022-10-19T22:14:18.033Z,98017.22
2022-10-19T22:16:45.939Z,98010.78
2022-10-19T22:19:14.309Z,98005.59
2022-10-19T22:21:42.406Z,98002.91
2022-10-19T22:24:14.807Z,98013.88
2022-10-19T22:26:47.630Z,98012.22
2022-10-19T22:29:15.542Z,98004.31
2022-10-19T22:31:43.948Z,98005.75
2022-10-19T22:34:16.027Z,98008.63
2022-10-19T22:36:44.803Z,98007.16
2022-10-19T22:39:13.933Z,98006.16
2022-10-19T22:41:41.715Z,97993.91
2022-10-19T22:44:09.564Z,97990.75
2022-10-19T22:46:37.360Z,97989.56
2022-10-19T22:49:05.237Z,97985.78
2022-10-19T22:51:33.133Z,97983.28
2022-10-19T22:54:01.227Z,97970.03
2022-10-19T22:56:29.112Z,97963.19
2022-10-19T22:59:01.927Z,97961.72
2022-10-19T23:01:29.870Z,97963.38
2022-10-19T23:03:58.063Z,97965.44
2022-10-19T23:06:26.135Z,97960.06
2022-10-19T23:08:54.607Z,97957.06
2022-10-19T23:11:23.162Z,97951.47
2022-10-19T23:13:51.231Z,97955.34
2022-10-19T23:16:19.166Z,97942.50
2022-10-19T23:18:47.091Z,97937.69
2022-10-19T23:21:15.683Z,97930.00
2022-10-19T23:23:43.580Z,97927.91
2022-10-19T23:26:21.029Z,97928.47
2022-10-19T23:28:50.803Z,97929.06
2022-10-19T23:31:26.186Z,97930.06
2022-10-19T23:33:54.897Z,97925.28
2022-10-19T23:36:28.829Z,97929.66
2022-10-19T23:38:58.660Z,97922.59
2022-10-19T23:41:27.045Z,97921.94
2022-10-19T23:43:54.874Z,97928.56
2022-10-19T23:46:22.784Z,97934.56
2022-10-19T23:48:50.632Z,97932.88
2022-10-19T23:51:20.840Z,97927.50
2022-10-19T23:53:52.215Z,97923.38
2022-10-19T23:56:29.472Z,97928.72
2022-10-19T23:58:57.458Z,97918.00
